sensor_id;sensor_type;location;lat;lon;timestamp;P1;durP1;ratioP1;P2;durP2;ratioP2
4674;SDS011;2351;50.812;12.872;2022-12-16T00:02:06;22.17;;;13.10;;
4674;SDS011;2351;50.812;12.872;2022-12-16T00:04:38;24.75;;;11.57;;
4674;SDS011;2351;50.812;12.872;2022-12-16T00:07:10;30.25;;;12.60;;
4674;SDS011;2351;50.812;12.872;2022-12-16T00:09:41;25.55;;;12.05;;
4674;SDS011;2351;50.812;12.872;2022-12-16T00:12:14;30.90;;;12.20;;
4674;SDS011;2351;50.812;12.872;2022-12-16T00:14:46;27.95;;;12.10;;
4674;SDS011;2351;50.812;12.872;2022-12-16T00:17:18;26.35;;;11.48;;
4674;SDS011;2351;50.812;12.872;2022-12-16T00:19:50;21.65;;;10.30;;
4674;SDS011;2351;50.812;12.872;2022-12-16T00:22:21;21.83;;;9.45;;
4674;SDS011;2351;50.812;12.872;2022-12-16T00:24:53;22.33;;;10.15;;
4674;SDS011;2351;50.812;12.872;2022-12-16T00:27:26;20.98;;;10.60;;
4674;SDS011;2351;50.812;12.872;2022-12-16T00:29:58;37.55;;;11.20;;
4674;SDS011;2351;50.812;12.872;2022-12-16T00:32:30;26.77;;;11.73;;
4674;SDS011;2351;50.812;12.872;2022-12-16T00:35:01;25.63;;;11.38;;
4674;SDS011;2351;50.812;12.872;2022-12-16T00:37:33;28.02;;;11.73;;
4674;SDS011;2351;50.812;12.872;2022-12-16T00:40:05;21.88;;;10.77;;
4674;SDS011;2351;50.812;12.872;2022-12-16T00:42:39;28.08;;;11.88;;
4674;SDS011;2351;50.812;12.872;2022-12-16T00:45:10;18.85;;;10.23;;
4674;SDS011;2351;50.812;12.872;2022-12-16T00:47:42;23.33;;;11.00;;
4674;SDS011;2351;50.812;12.872;2022-12-16T00:50:14;24.02;;;10.55;;
4674;SDS011;2351;50.812;12.872;2022-12-16T00:52:46;20.80;;;9.88;;
4674;SDS011;2351;50.812;12.872;2022-12-16T00:55:18;21.42;;;10.48;;
4674;SDS011;2351;50.812;12.872;2022-12-16T00:57:52;20.88;;;9.57;;
4674;SDS011;2351;50.812;12.872;2022-12-16T01:00:23;21.17;;;10.32;;
4674;SDS011;2351;50.812;12.872;2022-12-16T01:02:56;21.15;;;8.95;;
4674;SDS011;2351;50.812;12.872;2022-12-16T01:05:27;15.98;;;9.52;;
4674;SDS011;2351;50.812;12.872;2022-12-16T01:07:59;19.95;;;9.43;;
4674;SDS011;2351;50.812;12.872;2022-12-16T01:10:31;31.80;;;9.50;;
4674;SDS011;2351;50.812;12.872;2022-12-16T01:13:04;19.15;;;7.70;;
4674;SDS011;2351;50.812;12.872;2022-12-16T01:15:36;16.27;;;9.05;;
4674;SDS011;2351;50.812;12.872;2022-12-16T01:18:07;15.55;;;7.63;;
4674;SDS011;2351;50.812;12.872;2022-12-16T01:20:40;24.15;;;8.45;;
4674;SDS011;2351;50.812;12.872;2022-12-16T01:23:11;22.85;;;9.18;;
4674;SDS011;2351;50.812;12.872;2022-12-16T01:25:43;27.48;;;9.57;;
4674;SDS011;2351;50.812;12.872;2022-12-16T01:28:16;19.60;;;7.63;;
4674;SDS011;2351;50.812;12.872;2022-12-16T01:30:48;14.80;;;7.35;;
4674;SDS011;2351;50.812;12.872;2022-12-16T01:33:20;20.23;;;8.05;;
4674;SDS011;2351;50.812;12.872;2022-12-16T01:35:56;19.85;;;7.53;;
4674;SDS011;2351;50.812;12.872;2022-12-16T01:38:29;14.50;;;8.80;;
4674;SDS011;2351;50.812;12.872;2022-12-16T01:41:01;16.95;;;8.43;;
4674;SDS011;2351;50.812;12.872;2022-12-16T01:43:36;15.70;;;7.53;;
4674;SDS011;2351;50.812;12.872;2022-12-16T01:46:14;18.73;;;6.95;;
4674;SDS011;2351;50.812;12.872;2022-12-16T01:48:49;13.98;;;6.72;;
4674;SDS011;2351;50.812;12.872;2022-12-16T01:51:25;16.65;;;7.85;;
4674;SDS011;2351;50.812;12.872;2022-12-16T01:54:00;14.35;;;6.63;;
4674;SDS011;2351;50.812;12.872;2022-12-16T01:56:36;16.60;;;6.85;;
4674;SDS011;2351;50.812;12.872;2022-12-16T01:59:17;17.50;;;7.13;;
4674;SDS011;2351;50.812;12.872;2022-12-16T02:01:49;17.27;;;8.63;;
4674;SDS011;2351;50.812;12.872;2022-12-16T02:04:21;16.35;;;8.15;;
4674;SDS011;2351;50.812;12.872;2022-12-16T02:06:52;15.50;;;7.50;;
4674;SDS011;2351;50.812;12.872;2022-12-16T02:09:24;18.15;;;7.53;;
4674;SDS011;2351;50.812;12.872;2022-12-16T02:12:07;25.17;;;7.30;;
4674;SDS011;2351;50.812;12.872;2022-12-16T02:17:56;18.77;;;8.60;;
4674;SDS011;2351;50.812;12.872;2022-12-16T02:20:40;14.10;;;7.50;;
4674;SDS011;2351;50.812;12.872;2022-12-16T02:23:42;19.80;;;7.57;;
4674;SDS011;2351;50.812;12.872;2022-12-16T02:26:43;13.63;;;6.00;;
4674;SDS011;2351;50.812;12.872;2022-12-16T02:29:36;15.77;;;7.22;;
4674;SDS011;2351;50.812;12.872;2022-12-16T02:32:29;20.02;;;8.25;;
4674;SDS011;2351;50.812;12.872;2022-12-16T02:35:30;16.17;;;8.77;;
4674;SDS011;2351;50.812;12.872;2022-12-16T02:38:08;17.85;;;7.50;;
4674;SDS011;2351;50.812;12.872;2022-12-16T02:40:50;15.63;;;7.78;;
4674;SDS011;2351;50.812;12.872;2022-12-16T02:43:30;11.50;;;6.05;;
4674;SDS011;2351;50.812;12.872;2022-12-16T02:46:14;12.57;;;7.30;;
4674;SDS011;2351;50.812;12.872;2022-12-16T02:48:49;27.85;;;8.68;;
4674;SDS011;2351;50.812;12.872;2022-12-16T02:51:21;20.42;;;8.43;;
4674;SDS011;2351;50.812;12.872;2022-12-16T02:53:55;15.93;;;7.93;;
4674;SDS011;2351;50.812;12.872;2022-12-16T02:56:29;15.02;;;7.78;;
4674;SDS011;2351;50.812;12.872;2022-12-16T02:59:14;18.27;;;7.40;;
4674;SDS011;2351;50.812;12.872;2022-12-16T03:01:56;14.50;;;8.60;;
4674;SDS011;2351;50.812;12.872;2022-12-16T03:04:44;21.48;;;9.60;;
4674;SDS011;2351;50.812;12.872;2022-12-16T03:07:21;21.45;;;8.48;;
4674;SDS011;2351;50.812;12.872;2022-12-16T03:09:56;17.60;;;7.93;;
4674;SDS011;2351;50.812;12.872;2022-12-16T03:12:30;16.83;;;8.18;;
4674;SDS011;2351;50.812;12.872;2022-12-16T03:15:04;17.25;;;9.70;;
4674;SDS011;2351;50.812;12.872;2022-12-16T03:17:37;22.80;;;8.65;;
4674;SDS011;2351;50.812;12.872;2022-12-16T03:20:13;20.27;;;7.95;;
4674;SDS011;2351;50.812;12.872;2022-12-16T03:22:49;18.40;;;9.02;;
4674;SDS011;2351;50.812;12.872;2022-12-16T03:25:24;19.70;;;8.57;;
4674;SDS011;2351;50.812;12.872;2022-12-16T03:28:00;25.48;;;10.00;;
4674;SDS011;2351;50.812;12.872;2022-12-16T03:30:38;20.60;;;9.43;;
4674;SDS011;2351;50.812;12.872;2022-12-16T03:33:17;27.95;;;10.45;;
4674;SDS011;2351;50.812;12.872;2022-12-16T03:35:55;20.02;;;10.20;;
4674;SDS011;2351;50.812;12.872;2022-12-16T03:38:32;13.52;;;6.95;;
4674;SDS011;2351;50.812;12.872;2022-12-16T03:41:05;20.02;;;8.65;;
4674;SDS011;2351;50.812;12.872;2022-12-16T03:43:38;18.65;;;9.82;;
4674;SDS011;2351;50.812;12.872;2022-12-16T03:46:09;20.58;;;9.02;;
4674;SDS011;2351;50.812;12.872;2022-12-16T03:48:47;19.10;;;9.15;;
4674;SDS011;2351;50.812;12.872;2022-12-16T03:51:21;28.48;;;11.40;;
4674;SDS011;2351;50.812;12.872;2022-12-16T03:53:53;24.58;;;9.65;;
4674;SDS011;2351;50.812;12.872;2022-12-16T03:56:25;18.38;;;9.73;;
4674;SDS011;2351;50.812;12.872;2022-12-16T03:58:57;22.02;;;10.23;;
4674;SDS011;2351;50.812;12.872;2022-12-16T04:01:29;30.83;;;11.55;;
4674;SDS011;2351;50.812;12.872;2022-12-16T04:04:00;26.00;;;11.15;;
4674;SDS011;2351;50.812;12.872;2022-12-16T04:06:34;24.60;;;10.63;;
4674;SDS011;2351;50.812;12.872;2022-12-16T04:09:05;28.75;;;11.73;;
4674;SDS011;2351;50.812;12.872;2022-12-16T04:11:37;27.00;;;11.30;;
4674;SDS011;2351;50.812;12.872;2022-12-16T04:14:26;22.73;;;11.25;;
4674;SDS011;2351;50.812;12.872;2022-12-16T04:17:15;25.05;;;12.13;;
4674;SDS011;2351;50.812;12.872;2022-12-16T04:20:07;29.05;;;12.98;;
4674;SDS011;2351;50.812;12.872;2022-12-16T04:23:02;24.45;;;12.77;;
4674;SDS011;2351;50.812;12.872;2022-12-16T04:25:53;28.08;;;13.95;;
4674;SDS011;2351;50.812;12.872;2022-12-16T04:28:24;24.52;;;11.70;;
4674;SDS011;2351;50.812;12.872;2022-12-16T04:30:56;31.63;;;12.25;;
4674;SDS011;2351;50.812;12.872;2022-12-16T04:33:28;29.70;;;11.98;;
4674;SDS011;2351;50.812;12.872;2022-12-16T04:36:17;29.13;;;11.73;;
4674;SDS011;2351;50.812;12.872;2022-12-16T04:39:08;22.40;;;10.35;;
4674;SDS011;2351;50.812;12.872;2022-12-16T04:41:57;23.08;;;10.68;;
4674;SDS011;2351;50.812;12.872;2022-12-16T04:45:01;24.90;;;10.73;;
4674;SDS011;2351;50.812;12.872;2022-12-16T04:47:51;30.08;;;12.48;;
4674;SDS011;2351;50.812;12.872;2022-12-16T04:50:46;27.90;;;12.82;;
4674;SDS011;2351;50.812;12.872;2022-12-16T04:53:35;23.35;;;10.68;;
4674;SDS011;2351;50.812;12.872;2022-12-16T04:56:26;32.38;;;10.98;;
4674;SDS011;2351;50.812;12.872;2022-12-16T04:59:30;28.55;;;11.90;;
4674;SDS011;2351;50.812;12.872;2022-12-16T05:02:19;23.13;;;10.88;;
4674;SDS011;2351;50.812;12.872;2022-12-16T05:05:08;26.17;;;11.35;;
4674;SDS011;2351;50.812;12.872;2022-12-16T05:07:57;30.98;;;13.40;;
4674;SDS011;2351;50.812;12.872;2022-12-16T05:10:47;41.95;;;14.90;;
4674;SDS011;2351;50.812;12.872;2022-12-16T05:13:37;35.13;;;15.07;;
4674;SDS011;2351;50.812;12.872;2022-12-16T05:16:26;39.28;;;14.48;;
4674;SDS011;2351;50.812;12.872;2022-12-16T05:19:24;28.45;;;11.70;;
4674;SDS011;2351;50.812;12.872;2022-12-16T05:22:13;28.55;;;12.20;;
4674;SDS011;2351;50.812;12.872;2022-12-16T05:25:02;35.35;;;13.98;;
4674;SDS011;2351;50.812;12.872;2022-12-16T05:27:51;30.45;;;12.80;;
4674;SDS011;2351;50.812;12.872;2022-12-16T05:30:43;36.70;;;13.85;;
4674;SDS011;2351;50.812;12.872;2022-12-16T05:33:32;32.15;;;11.98;;
4674;SDS011;2351;50.812;12.872;2022-12-16T05:36:21;32.15;;;13.88;;
4674;SDS011;2351;50.812;12.872;2022-12-16T05:39:11;28.20;;;11.60;;
4674;SDS011;2351;50.812;12.872;2022-12-16T05:42:00;43.03;;;15.15;;
4674;SDS011;2351;50.812;12.872;2022-12-16T05:44:49;27.33;;;10.43;;
4674;SDS011;2351;50.812;12.872;2022-12-16T05:47:40;34.78;;;13.23;;
4674;SDS011;2351;50.812;12.872;2022-12-16T05:50:41;48.63;;;15.40;;
4674;SDS011;2351;50.812;12.872;2022-12-16T05:53:30;35.25;;;15.25;;
4674;SDS011;2351;50.812;12.872;2022-12-16T05:56:19;38.85;;;16.15;;
4674;SDS011;2351;50.812;12.872;2022-12-16T05:59:22;34.95;;;15.23;;
4674;SDS011;2351;50.812;12.872;2022-12-16T06:02:12;44.22;;;16.60;;
4674;SDS011;2351;50.812;12.872;2022-12-16T06:05:03;37.55;;;15.93;;
4674;SDS011;2351;50.812;12.872;2022-12-16T06:07:52;53.58;;;17.48;;
4674;SDS011;2351;50.812;12.872;2022-12-16T06:10:42;44.05;;;17.63;;
4674;SDS011;2351;50.812;12.872;2022-12-16T06:13:31;40.20;;;16.33;;
4674;SDS011;2351;50.812;12.872;2022-12-16T06:16:20;50.50;;;17.00;;
4674;SDS011;2351;50.812;12.872;2022-12-16T06:19:09;48.25;;;17.45;;
4674;SDS011;2351;50.812;12.872;2022-12-16T06:22:00;37.30;;;15.70;;
4674;SDS011;2351;50.812;12.872;2022-12-16T06:24:49;39.83;;;15.90;;
4674;SDS011;2351;50.812;12.872;2022-12-16T06:27:38;41.92;;;16.15;;
4674;SDS011;2351;50.812;12.872;2022-12-16T06:30:28;36.70;;;15.45;;
4674;SDS011;2351;50.812;12.872;2022-12-16T06:33:17;40.50;;;16.25;;
4674;SDS011;2351;50.812;12.872;2022-12-16T06:36:07;33.95;;;15.63;;
4674;SDS011;2351;50.812;12.872;2022-12-16T06:38:58;35.13;;;13.65;;
4674;SDS011;2351;50.812;12.872;2022-12-16T06:41:43;30.45;;;15.82;;
4674;SDS011;2351;50.812;12.872;2022-12-16T06:44:41;33.30;;;15.07;;
4674;SDS011;2351;50.812;12.872;2022-12-16T06:47:29;36.45;;;16.45;;
4674;SDS011;2351;50.812;12.872;2022-12-16T06:50:19;60.53;;;23.83;;
4674;SDS011;2351;50.812;12.872;2022-12-16T06:53:08;33.22;;;15.35;;
4674;SDS011;2351;50.812;12.872;2022-12-16T06:55:59;42.30;;;17.65;;
4674;SDS011;2351;50.812;12.872;2022-12-16T06:58:48;33.78;;;15.85;;
4674;SDS011;2351;50.812;12.872;2022-12-16T07:01:37;39.08;;;13.63;;
4674;SDS011;2351;50.812;12.872;2022-12-16T07:04:26;36.53;;;15.70;;
4674;SDS011;2351;50.812;12.872;2022-12-16T07:07:16;40.28;;;16.17;;
4674;SDS011;2351;50.812;12.872;2022-12-16T07:10:05;35.70;;;15.30;;
4674;SDS011;2351;50.812;12.872;2022-12-16T07:12:58;36.35;;;16.40;;
4674;SDS011;2351;50.812;12.872;2022-12-16T07:15:47;47.00;;;18.35;;
4674;SDS011;2351;50.812;12.872;2022-12-16T07:18:37;30.20;;;14.80;;
4674;SDS011;2351;50.812;12.872;2022-12-16T07:21:26;32.88;;;15.00;;
4674;SDS011;2351;50.812;12.872;2022-12-16T07:24:15;46.20;;;17.42;;
4674;SDS011;2351;50.812;12.872;2022-12-16T07:27:04;33.45;;;14.77;;
4674;SDS011;2351;50.812;12.872;2022-12-16T07:29:55;42.55;;;15.27;;
4674;SDS011;2351;50.812;12.872;2022-12-16T07:32:44;27.98;;;12.25;;
4674;SDS011;2351;50.812;12.872;2022-12-16T07:35:37;34.58;;;16.08;;
4674;SDS011;2351;50.812;12.872;2022-12-16T07:38:29;38.75;;;14.65;;
4674;SDS011;2351;50.812;12.872;2022-12-16T07:41:19;37.28;;;14.80;;
4674;SDS011;2351;50.812;12.872;2022-12-16T07:44:08;30.98;;;14.60;;
4674;SDS011;2351;50.812;12.872;2022-12-16T07:46:59;42.08;;;15.85;;
4674;SDS011;2351;50.812;12.872;2022-12-16T07:49:48;40.20;;;16.48;;
4674;SDS011;2351;50.812;12.872;2022-12-16T07:52:37;31.23;;;14.48;;
4674;SDS011;2351;50.812;12.872;2022-12-16T07:55:26;32.88;;;14.93;;
4674;SDS011;2351;50.812;12.872;2022-12-16T07:58:16;35.78;;;15.93;;
4674;SDS011;2351;50.812;12.872;2022-12-16T08:01:05;47.85;;;17.15;;
4674;SDS011;2351;50.812;12.872;2022-12-16T08:03:55;47.85;;;17.42;;
4674;SDS011;2351;50.812;12.872;2022-12-16T08:06:45;32.60;;;15.27;;
4674;SDS011;2351;50.812;12.872;2022-12-16T08:09:34;28.33;;;13.25;;
4674;SDS011;2351;50.812;12.872;2022-12-16T08:12:23;29.35;;;13.07;;
4674;SDS011;2351;50.812;12.872;2022-12-16T08:15:12;40.03;;;14.13;;
4674;SDS011;2351;50.812;12.872;2022-12-16T08:18:02;35.50;;;15.52;;
4674;SDS011;2351;50.812;12.872;2022-12-16T08:20:52;37.30;;;15.57;;
4674;SDS011;2351;50.812;12.872;2022-12-16T08:23:42;26.77;;;11.88;;
4674;SDS011;2351;50.812;12.872;2022-12-16T08:26:31;27.92;;;14.15;;
4674;SDS011;2351;50.812;12.872;2022-12-16T08:29:20;42.63;;;17.27;;
4674;SDS011;2351;50.812;12.872;2022-12-16T08:32:09;29.42;;;14.13;;
4674;SDS011;2351;50.812;12.872;2022-12-16T08:34:59;38.30;;;14.75;;
4674;SDS011;2351;50.812;12.872;2022-12-16T08:37:50;37.10;;;15.40;;
4674;SDS011;2351;50.812;12.872;2022-12-16T08:40:42;27.50;;;13.82;;
4674;SDS011;2351;50.812;12.872;2022-12-16T08:43:33;48.00;;;15.30;;
4674;SDS011;2351;50.812;12.872;2022-12-16T08:46:23;39.55;;;16.92;;
4674;SDS011;2351;50.812;12.872;2022-12-16T08:49:12;32.20;;;15.45;;
4674;SDS011;2351;50.812;12.872;2022-12-16T08:52:10;37.70;;;16.20;;
4674;SDS011;2351;50.812;12.872;2022-12-16T08:55:00;33.13;;;14.20;;
4674;SDS011;2351;50.812;12.872;2022-12-16T08:57:51;33.28;;;15.45;;
4674;SDS011;2351;50.812;12.872;2022-12-16T09:00:41;30.35;;;14.30;;
4674;SDS011;2351;50.812;12.872;2022-12-16T09:03:30;34.22;;;15.45;;
4674;SDS011;2351;50.812;12.872;2022-12-16T09:06:19;34.58;;;16.35;;
4674;SDS011;2351;50.812;12.872;2022-12-16T09:09:08;38.03;;;15.55;;
4674;SDS011;2351;50.812;12.872;2022-12-16T09:11:59;35.88;;;15.25;;
4674;SDS011;2351;50.812;12.872;2022-12-16T09:14:48;33.60;;;14.32;;
4674;SDS011;2351;50.812;12.872;2022-12-16T09:17:38;52.30;;;16.98;;
4674;SDS011;2351;50.812;12.872;2022-12-16T09:20:27;37.03;;;17.15;;
4674;SDS011;2351;50.812;12.872;2022-12-16T09:23:16;33.92;;;15.35;;
4674;SDS011;2351;50.812;12.872;2022-12-16T09:26:05;39.30;;;15.75;;
4674;SDS011;2351;50.812;12.872;2022-12-16T09:28:56;44.40;;;17.60;;
4674;SDS011;2351;50.812;12.872;2022-12-16T09:31:45;38.75;;;15.77;;
4674;SDS011;2351;50.812;12.872;2022-12-16T09:34:35;37.73;;;16.83;;
4674;SDS011;2351;50.812;12.872;2022-12-16T09:37:24;32.10;;;15.93;;
4674;SDS011;2351;50.812;12.872;2022-12-16T09:40:13;38.05;;;16.27;;
4674;SDS011;2351;50.812;12.872;2022-12-16T09:43:05;43.55;;;16.77;;
4674;SDS011;2351;50.812;12.872;2022-12-16T09:46:11;36.53;;;13.30;;
4674;SDS011;2351;50.812;12.872;2022-12-16T09:49:11;44.70;;;15.82;;
4674;SDS011;2351;50.812;12.872;2022-12-16T09:52:08;41.35;;;20.45;;
4674;SDS011;2351;50.812;12.872;2022-12-16T09:55:03;35.72;;;15.95;;
4674;SDS011;2351;50.812;12.872;2022-12-16T09:57:54;42.33;;;16.83;;
4674;SDS011;2351;50.812;12.872;2022-12-16T10:00:43;49.78;;;20.23;;
4674;SDS011;2351;50.812;12.872;2022-12-16T10:03:35;43.60;;;19.00;;
4674;SDS011;2351;50.812;12.872;2022-12-16T10:06:30;39.30;;;16.63;;
4674;SDS011;2351;50.812;12.872;2022-12-16T10:09:27;36.78;;;16.30;;
4674;SDS011;2351;50.812;12.872;2022-12-16T10:12:25;38.90;;;17.90;;
4674;SDS011;2351;50.812;12.872;2022-12-16T10:15:25;36.47;;;16.25;;
4674;SDS011;2351;50.812;12.872;2022-12-16T10:18:25;37.95;;;16.88;;
4674;SDS011;2351;50.812;12.872;2022-12-16T10:21:26;40.40;;;17.20;;
4674;SDS011;2351;50.812;12.872;2022-12-16T10:24:23;40.22;;;16.10;;
4674;SDS011;2351;50.812;12.872;2022-12-16T10:27:22;37.53;;;17.00;;
4674;SDS011;2351;50.812;12.872;2022-12-16T10:30:14;50.95;;;18.75;;
4674;SDS011;2351;50.812;12.872;2022-12-16T10:33:06;49.65;;;19.30;;
4674;SDS011;2351;50.812;12.872;2022-12-16T10:35:58;43.78;;;19.23;;
4674;SDS011;2351;50.812;12.872;2022-12-16T10:38:50;45.97;;;17.80;;
4674;SDS011;2351;50.812;12.872;2022-12-16T10:41:44;46.35;;;19.58;;
4674;SDS011;2351;50.812;12.872;2022-12-16T10:44:39;39.10;;;16.13;;
4674;SDS011;2351;50.812;12.872;2022-12-16T10:47:37;46.75;;;18.05;;
4674;SDS011;2351;50.812;12.872;2022-12-16T10:50:26;40.60;;;18.77;;
4674;SDS011;2351;50.812;12.872;2022-12-16T10:53:17;42.38;;;18.83;;
4674;SDS011;2351;50.812;12.872;2022-12-16T10:56:16;49.08;;;17.20;;
4674;SDS011;2351;50.812;12.872;2022-12-16T10:59:14;49.03;;;18.75;;
4674;SDS011;2351;50.812;12.872;2022-12-16T11:02:18;53.03;;;21.00;;
4674;SDS011;2351;50.812;12.872;2022-12-16T11:08:22;41.22;;;17.63;;
4674;SDS011;2351;50.812;12.872;2022-12-16T11:11:19;41.58;;;17.48;;
4674;SDS011;2351;50.812;12.872;2022-12-16T11:17:18;43.55;;;19.08;;
4674;SDS011;2351;50.812;12.872;2022-12-16T11:20:13;49.55;;;20.17;;
4674;SDS011;2351;50.812;12.872;2022-12-16T11:23:08;44.90;;;20.75;;
4674;SDS011;2351;50.812;12.872;2022-12-16T11:26:08;47.08;;;18.38;;
4674;SDS011;2351;50.812;12.872;2022-12-16T11:29:05;53.45;;;22.75;;
4674;SDS011;2351;50.812;12.872;2022-12-16T11:32:00;35.63;;;16.83;;
4674;SDS011;2351;50.812;12.872;2022-12-16T11:34:54;41.72;;;19.50;;
4674;SDS011;2351;50.812;12.872;2022-12-16T11:37:47;48.80;;;20.98;;
4674;SDS011;2351;50.812;12.872;2022-12-16T11:40:39;47.88;;;17.73;;
4674;SDS011;2351;50.812;12.872;2022-12-16T11:43:29;53.03;;;20.08;;
4674;SDS011;2351;50.812;12.872;2022-12-16T11:46:23;50.28;;;20.25;;
4674;SDS011;2351;50.812;12.872;2022-12-16T11:49:16;55.08;;;23.50;;
4674;SDS011;2351;50.812;12.872;2022-12-16T11:52:10;52.67;;;20.17;;
4674;SDS011;2351;50.812;12.872;2022-12-16T11:55:14;53.13;;;20.33;;
4674;SDS011;2351;50.812;12.872;2022-12-16T11:58:10;47.00;;;21.48;;
4674;SDS011;2351;50.812;12.872;2022-12-16T12:01:08;56.47;;;20.35;;
4674;SDS011;2351;50.812;12.872;2022-12-16T12:04:03;51.83;;;19.88;;
4674;SDS011;2351;50.812;12.872;2022-12-16T12:06:56;45.78;;;19.20;;
4674;SDS011;2351;50.812;12.872;2022-12-16T12:09:57;45.90;;;19.60;;
4674;SDS011;2351;50.812;12.872;2022-12-16T12:13:00;49.55;;;20.45;;
4674;SDS011;2351;50.812;12.872;2022-12-16T12:16:08;54.33;;;21.50;;
4674;SDS011;2351;50.812;12.872;2022-12-16T12:19:06;57.40;;;20.73;;
4674;SDS011;2351;50.812;12.872;2022-12-16T12:22:00;63.13;;;23.30;;
4674;SDS011;2351;50.812;12.872;2022-12-16T12:24:56;59.17;;;21.15;;
4674;SDS011;2351;50.812;12.872;2022-12-16T12:27:57;48.70;;;22.02;;
4674;SDS011;2351;50.812;12.872;2022-12-16T12:30:56;49.72;;;20.45;;
4674;SDS011;2351;50.812;12.872;2022-12-16T12:33:54;62.72;;;22.58;;
4674;SDS011;2351;50.812;12.872;2022-12-16T12:36:56;59.67;;;24.58;;
4674;SDS011;2351;50.812;12.872;2022-12-16T12:39:52;57.80;;;21.23;;
4674;SDS011;2351;50.812;12.872;2022-12-16T12:42:48;57.42;;;23.75;;
4674;SDS011;2351;50.812;12.872;2022-12-16T12:45:46;59.40;;;22.00;;
4674;SDS011;2351;50.812;12.872;2022-12-16T12:48:44;57.65;;;22.27;;
4674;SDS011;2351;50.812;12.872;2022-12-16T12:51:41;48.45;;;20.75;;
4674;SDS011;2351;50.812;12.872;2022-12-16T12:54:42;63.45;;;23.17;;
4674;SDS011;2351;50.812;12.872;2022-12-16T12:57:35;55.33;;;21.90;;
4674;SDS011;2351;50.812;12.872;2022-12-16T13:00:27;61.85;;;22.13;;
4674;SDS011;2351;50.812;12.872;2022-12-16T13:03:23;51.17;;;21.75;;
4674;SDS011;2351;50.812;12.872;2022-12-16T13:06:20;64.50;;;23.15;;
4674;SDS011;2351;50.812;12.872;2022-12-16T13:12:24;53.40;;;19.77;;
4674;SDS011;2351;50.812;12.872;2022-12-16T13:15:18;54.75;;;23.45;;
4674;SDS011;2351;50.812;12.872;2022-12-16T13:18:23;57.25;;;23.15;;
4674;SDS011;2351;50.812;12.872;2022-12-16T13:27:48;48.65;;;22.27;;
4674;SDS011;2351;50.812;12.872;2022-12-16T13:30:56;48.97;;;21.60;;
4674;SDS011;2351;50.812;12.872;2022-12-16T13:33:50;57.95;;;23.20;;
4674;SDS011;2351;50.812;12.872;2022-12-16T13:36:39;66.45;;;25.02;;
4674;SDS011;2351;50.812;12.872;2022-12-16T13:39:31;51.58;;;21.05;;
4674;SDS011;2351;50.812;12.872;2022-12-16T13:42:31;47.42;;;19.90;;
4674;SDS011;2351;50.812;12.872;2022-12-16T13:45:41;53.55;;;22.00;;
4674;SDS011;2351;50.812;12.872;2022-12-16T13:48:35;48.38;;;20.85;;
4674;SDS011;2351;50.812;12.872;2022-12-16T13:54:48;56.65;;;22.27;;
4674;SDS011;2351;50.812;12.872;2022-12-16T13:57:43;63.50;;;25.55;;
4674;SDS011;2351;50.812;12.872;2022-12-16T14:00:36;55.60;;;21.92;;
4674;SDS011;2351;50.812;12.872;2022-12-16T14:03:32;56.95;;;24.77;;
4674;SDS011;2351;50.812;12.872;2022-12-16T14:06:30;62.78;;;22.73;;
4674;SDS011;2351;50.812;12.872;2022-12-16T14:09:24;57.03;;;22.05;;
4674;SDS011;2351;50.812;12.872;2022-12-16T14:15:31;61.65;;;25.15;;
4674;SDS011;2351;50.812;12.872;2022-12-16T14:18:34;77.18;;;22.27;;
4674;SDS011;2351;50.812;12.872;2022-12-16T14:21:33;69.20;;;21.02;;
4674;SDS011;2351;50.812;12.872;2022-12-16T14:24:28;57.95;;;24.60;;
4674;SDS011;2351;50.812;12.872;2022-12-16T14:27:18;52.55;;;24.35;;
4674;SDS011;2351;50.812;12.872;2022-12-16T14:30:14;66.63;;;23.05;;
4674;SDS011;2351;50.812;12.872;2022-12-16T14:33:14;70.65;;;26.70;;
4674;SDS011;2351;50.812;12.872;2022-12-16T14:36:16;49.63;;;20.90;;
4674;SDS011;2351;50.812;12.872;2022-12-16T14:39:10;60.13;;;23.60;;
4674;SDS011;2351;50.812;12.872;2022-12-16T14:42:01;53.28;;;21.60;;
4674;SDS011;2351;50.812;12.872;2022-12-16T14:44:50;67.82;;;24.08;;
4674;SDS011;2351;50.812;12.872;2022-12-16T14:47:39;53.97;;;21.98;;
4674;SDS011;2351;50.812;12.872;2022-12-16T14:50:30;55.33;;;22.20;;
4674;SDS011;2351;50.812;12.872;2022-12-16T14:53:22;47.05;;;21.00;;
4674;SDS011;2351;50.812;12.872;2022-12-16T14:56:15;69.30;;;23.55;;
4674;SDS011;2351;50.812;12.872;2022-12-16T14:59:16;65.35;;;26.08;;
4674;SDS011;2351;50.812;12.872;2022-12-16T15:02:10;70.78;;;24.90;;
4674;SDS011;2351;50.812;12.872;2022-12-16T15:05:07;55.60;;;21.17;;
4674;SDS011;2351;50.812;12.872;2022-12-16T15:07:56;49.20;;;20.02;;
4674;SDS011;2351;50.812;12.872;2022-12-16T15:10:48;57.38;;;21.90;;
4674;SDS011;2351;50.812;12.872;2022-12-16T15:13:37;57.85;;;21.02;;
4674;SDS011;2351;50.812;12.872;2022-12-16T15:16:27;65.18;;;22.30;;
4674;SDS011;2351;50.812;12.872;2022-12-16T15:19:21;61.50;;;24.85;;
4674;SDS011;2351;50.812;12.872;2022-12-16T15:22:12;57.95;;;22.13;;
4674;SDS011;2351;50.812;12.872;2022-12-16T15:25:03;66.00;;;26.60;;
4674;SDS011;2351;50.812;12.872;2022-12-16T15:27:55;62.67;;;20.58;;
4674;SDS011;2351;50.812;12.872;2022-12-16T15:30:45;65.53;;;22.55;;
4674;SDS011;2351;50.812;12.872;2022-12-16T15:33:35;76.07;;;23.48;;
4674;SDS011;2351;50.812;12.872;2022-12-16T15:36:26;71.95;;;26.02;;
4674;SDS011;2351;50.812;12.872;2022-12-16T15:39:18;67.95;;;24.73;;
4674;SDS011;2351;50.812;12.872;2022-12-16T15:42:16;69.95;;;25.27;;
4674;SDS011;2351;50.812;12.872;2022-12-16T15:45:16;66.18;;;24.58;;
4674;SDS011;2351;50.812;12.872;2022-12-16T15:48:10;77.88;;;24.08;;
4674;SDS011;2351;50.812;12.872;2022-12-16T15:51:18;62.60;;;25.52;;
4674;SDS011;2351;50.812;12.872;2022-12-16T15:54:12;82.72;;;28.08;;
4674;SDS011;2351;50.812;12.872;2022-12-16T16:00:19;61.45;;;25.02;;
4674;SDS011;2351;50.812;12.872;2022-12-16T16:03:17;70.85;;;25.75;;
4674;SDS011;2351;50.812;12.872;2022-12-16T16:06:17;77.70;;;24.67;;
4674;SDS011;2351;50.812;12.872;2022-12-16T16:09:12;57.15;;;22.55;;
4674;SDS011;2351;50.812;12.872;2022-12-16T16:12:02;62.38;;;25.88;;
4674;SDS011;2351;50.812;12.872;2022-12-16T16:14:52;69.15;;;24.88;;
4674;SDS011;2351;50.812;12.872;2022-12-16T16:17:42;70.68;;;25.58;;
4674;SDS011;2351;50.812;12.872;2022-12-16T16:20:32;85.72;;;25.30;;
4674;SDS011;2351;50.812;12.872;2022-12-16T16:23:21;87.72;;;26.58;;
4674;SDS011;2351;50.812;12.872;2022-12-16T16:26:11;62.70;;;23.70;;
4674;SDS011;2351;50.812;12.872;2022-12-16T16:29:01;70.85;;;25.58;;
4674;SDS011;2351;50.812;12.872;2022-12-16T16:31:51;84.68;;;25.23;;
4674;SDS011;2351;50.812;12.872;2022-12-16T16:34:42;59.92;;;23.85;;
4674;SDS011;2351;50.812;12.872;2022-12-16T16:37:31;76.28;;;25.67;;
4674;SDS011;2351;50.812;12.872;2022-12-16T16:40:22;88.38;;;28.08;;
4674;SDS011;2351;50.812;12.872;2022-12-16T16:43:18;74.00;;;25.90;;
4674;SDS011;2351;50.812;12.872;2022-12-16T16:46:12;66.50;;;26.52;;
4674;SDS011;2351;50.812;12.872;2022-12-16T16:49:19;63.13;;;24.08;;
4674;SDS011;2351;50.812;12.872;2022-12-16T16:52:12;72.70;;;25.02;;
4674;SDS011;2351;50.812;12.872;2022-12-16T16:55:02;55.80;;;24.65;;
4674;SDS011;2351;50.812;12.872;2022-12-16T16:57:52;70.80;;;25.30;;
4674;SDS011;2351;50.812;12.872;2022-12-16T17:00:42;66.95;;;24.13;;
4674;SDS011;2351;50.812;12.872;2022-12-16T17:03:31;52.53;;;22.55;;
4674;SDS011;2351;50.812;12.872;2022-12-16T17:06:20;70.63;;;26.00;;
4674;SDS011;2351;50.812;12.872;2022-12-16T17:09:16;64.63;;;26.30;;